sensor_id;sensor_type;location;lat;lon;timestamp;P1;durP1;ratioP1;P2;durP2;ratioP2
31760;SDS011;18335;51.486;7.562;2023-04-26T00:02:25;13.77;;;2.55;;
31760;SDS011;18335;51.486;7.562;2023-04-26T00:04:52;15.07;;;3.65;;
31760;SDS011;18335;51.486;7.562;2023-04-26T00:07:20;8.88;;;2.28;;
31760;SDS011;18335;51.486;7.562;2023-04-26T00:09:49;9.82;;;2.40;;
31760;SDS011;18335;51.486;7.562;2023-04-26T00:12:17;10.25;;;2.15;;
31760;SDS011;18335;51.486;7.562;2023-04-26T00:14:44;8.38;;;2.40;;
31760;SDS011;18335;51.486;7.562;2023-04-26T00:17:10;9.20;;;2.08;;
31760;SDS011;18335;51.486;7.562;2023-04-26T00:19:37;11.63;;;2.97;;
31760;SDS011;18335;51.486;7.562;2023-04-26T00:22:04;5.82;;;2.22;;
31760;SDS011;18335;51.486;7.562;2023-04-26T00:24:31;5.35;;;1.90;;
31760;SDS011;18335;51.486;7.562;2023-04-26T00:26:57;11.93;;;2.13;;
31760;SDS011;18335;51.486;7.562;2023-04-26T00:29:26;8.70;;;2.20;;
31760;SDS011;18335;51.486;7.562;2023-04-26T00:31:53;14.27;;;3.80;;
31760;SDS011;18335;51.486;7.562;2023-04-26T00:34:19;11.18;;;2.65;;
31760;SDS011;18335;51.486;7.562;2023-04-26T00:36:48;13.05;;;2.67;;
31760;SDS011;18335;51.486;7.562;2023-04-26T00:39:15;8.77;;;2.88;;
31760;SDS011;18335;51.486;7.562;2023-04-26T00:41:42;9.13;;;2.28;;
31760;SDS011;18335;51.486;7.562;2023-04-26T00:44:09;7.95;;;1.90;;
31760;SDS011;18335;51.486;7.562;2023-04-26T00:46:37;13.95;;;3.03;;
31760;SDS011;18335;51.486;7.562;2023-04-26T00:49:04;10.18;;;2.65;;
31760;SDS011;18335;51.486;7.562;2023-04-26T00:51:31;9.02;;;2.47;;
31760;SDS011;18335;51.486;7.562;2023-04-26T00:53:58;9.02;;;2.85;;
31760;SDS011;18335;51.486;7.562;2023-04-26T00:56:25;10.15;;;2.55;;
31760;SDS011;18335;51.486;7.562;2023-04-26T00:58:52;12.65;;;2.92;;
31760;SDS011;18335;51.486;7.562;2023-04-26T01:01:19;7.90;;;2.03;;
31760;SDS011;18335;51.486;7.562;2023-04-26T01:03:47;8.45;;;2.13;;
31760;SDS011;18335;51.486;7.562;2023-04-26T01:06:14;9.40;;;2.88;;
31760;SDS011;18335;51.486;7.562;2023-04-26T01:08:42;9.98;;;3.03;;
31760;SDS011;18335;51.486;7.562;2023-04-26T01:11:09;14.30;;;4.43;;
31760;SDS011;18335;51.486;7.562;2023-04-26T01:13:37;12.50;;;3.80;;
31760;SDS011;18335;51.486;7.562;2023-04-26T01:16:04;14.68;;;3.30;;
31760;SDS011;18335;51.486;7.562;2023-04-26T01:18:33;13.77;;;4.22;;
31760;SDS011;18335;51.486;7.562;2023-04-26T01:21:01;13.07;;;2.80;;
31760;SDS011;18335;51.486;7.562;2023-04-26T01:23:31;10.63;;;3.25;;
31760;SDS011;18335;51.486;7.562;2023-04-26T01:25:58;11.10;;;2.70;;
31760;SDS011;18335;51.486;7.562;2023-04-26T01:28:24;10.40;;;2.97;;
31760;SDS011;18335;51.486;7.562;2023-04-26T01:30:51;9.45;;;2.80;;
31760;SDS011;18335;51.486;7.562;2023-04-26T01:33:18;13.80;;;3.90;;
31760;SDS011;18335;51.486;7.562;2023-04-26T01:35:45;9.90;;;2.60;;
31760;SDS011;18335;51.486;7.562;2023-04-26T01:38:12;8.75;;;2.85;;
31760;SDS011;18335;51.486;7.562;2023-04-26T01:40:40;14.55;;;3.05;;
31760;SDS011;18335;51.486;7.562;2023-04-26T01:43:10;11.05;;;3.25;;
31760;SDS011;18335;51.486;7.562;2023-04-26T01:45:37;9.35;;;2.63;;
31760;SDS011;18335;51.486;7.562;2023-04-26T01:48:22;8.18;;;2.70;;
31760;SDS011;18335;51.486;7.562;2023-04-26T01:50:49;11.60;;;2.97;;
31760;SDS011;18335;51.486;7.562;2023-04-26T01:53:16;11.52;;;3.17;;
31760;SDS011;18335;51.486;7.562;2023-04-26T01:55:44;11.77;;;3.42;;
31760;SDS011;18335;51.486;7.562;2023-04-26T01:58:10;9.98;;;3.42;;
31760;SDS011;18335;51.486;7.562;2023-04-26T02:00:37;8.65;;;3.65;;
31760;SDS011;18335;51.486;7.562;2023-04-26T02:03:04;11.85;;;4.00;;
31760;SDS011;18335;51.486;7.562;2023-04-26T02:05:31;14.45;;;4.20;;
31760;SDS011;18335;51.486;7.562;2023-04-26T02:07:58;11.25;;;3.15;;
31760;SDS011;18335;51.486;7.562;2023-04-26T02:10:24;14.73;;;4.20;;
31760;SDS011;18335;51.486;7.562;2023-04-26T02:12:53;12.88;;;3.50;;
31760;SDS011;18335;51.486;7.562;2023-04-26T02:15:19;13.30;;;4.38;;
31760;SDS011;18335;51.486;7.562;2023-04-26T02:17:48;8.65;;;3.58;;
31760;SDS011;18335;51.486;7.562;2023-04-26T02:20:15;10.82;;;3.30;;
31760;SDS011;18335;51.486;7.562;2023-04-26T02:22:42;13.73;;;3.88;;
31760;SDS011;18335;51.486;7.562;2023-04-26T02:25:08;8.80;;;3.63;;
31760;SDS011;18335;51.486;7.562;2023-04-26T02:27:35;9.43;;;3.35;;
31760;SDS011;18335;51.486;7.562;2023-04-26T02:30:04;11.95;;;3.10;;
31760;SDS011;18335;51.486;7.562;2023-04-26T02:32:33;12.07;;;3.17;;
31760;SDS011;18335;51.486;7.562;2023-04-26T02:35:00;9.52;;;3.38;;
31760;SDS011;18335;51.486;7.562;2023-04-26T02:37:27;13.30;;;3.72;;
31760;SDS011;18335;51.486;7.562;2023-04-26T02:39:54;11.98;;;3.42;;
31760;SDS011;18335;51.486;7.562;2023-04-26T02:42:21;8.88;;;3.42;;
31760;SDS011;18335;51.486;7.562;2023-04-26T02:44:48;13.93;;;4.00;;
31760;SDS011;18335;51.486;7.562;2023-04-26T02:47:16;10.80;;;3.35;;
31760;SDS011;18335;51.486;7.562;2023-04-26T02:49:44;11.05;;;3.67;;
31760;SDS011;18335;51.486;7.562;2023-04-26T02:52:10;13.20;;;3.78;;
31760;SDS011;18335;51.486;7.562;2023-04-26T02:54:37;13.73;;;4.47;;
31760;SDS011;18335;51.486;7.562;2023-04-26T02:57:04;12.68;;;3.47;;
31760;SDS011;18335;51.486;7.562;2023-04-26T02:59:32;10.52;;;3.83;;
31760;SDS011;18335;51.486;7.562;2023-04-26T03:01:59;10.02;;;2.90;;
31760;SDS011;18335;51.486;7.562;2023-04-26T03:04:27;12.77;;;3.30;;
31760;SDS011;18335;51.486;7.562;2023-04-26T03:06:54;14.48;;;4.53;;
31760;SDS011;18335;51.486;7.562;2023-04-26T03:09:21;9.50;;;4.15;;
31760;SDS011;18335;51.486;7.562;2023-04-26T03:11:49;12.95;;;4.68;;
31760;SDS011;18335;51.486;7.562;2023-04-26T03:14:17;11.25;;;3.60;;
31760;SDS011;18335;51.486;7.562;2023-04-26T03:16:44;11.48;;;3.95;;
31760;SDS011;18335;51.486;7.562;2023-04-26T03:19:13;11.13;;;3.60;;
31760;SDS011;18335;51.486;7.562;2023-04-26T03:21:41;12.05;;;3.33;;
31760;SDS011;18335;51.486;7.562;2023-04-26T03:24:08;9.63;;;3.20;;
31760;SDS011;18335;51.486;7.562;2023-04-26T03:26:35;9.90;;;3.97;;
31760;SDS011;18335;51.486;7.562;2023-04-26T03:29:02;8.27;;;3.33;;
31760;SDS011;18335;51.486;7.562;2023-04-26T03:31:29;9.63;;;3.22;;
31760;SDS011;18335;51.486;7.562;2023-04-26T03:33:55;11.35;;;4.15;;
31760;SDS011;18335;51.486;7.562;2023-04-26T03:36:22;9.43;;;3.50;;
31760;SDS011;18335;51.486;7.562;2023-04-26T03:38:50;13.18;;;3.72;;
31760;SDS011;18335;51.486;7.562;2023-04-26T03:41:18;14.82;;;4.43;;
31760;SDS011;18335;51.486;7.562;2023-04-26T03:43:44;12.48;;;5.07;;
31760;SDS011;18335;51.486;7.562;2023-04-26T03:46:11;14.10;;;4.18;;
31760;SDS011;18335;51.486;7.562;2023-04-26T03:48:38;12.13;;;4.70;;
31760;SDS011;18335;51.486;7.562;2023-04-26T03:51:05;13.55;;;4.20;;
31760;SDS011;18335;51.486;7.562;2023-04-26T03:53:32;18.50;;;4.57;;
31760;SDS011;18335;51.486;7.562;2023-04-26T03:56:00;13.77;;;4.65;;
31760;SDS011;18335;51.486;7.562;2023-04-26T03:58:27;13.18;;;5.80;;
31760;SDS011;18335;51.486;7.562;2023-04-26T04:00:55;14.50;;;4.90;;
31760;SDS011;18335;51.486;7.562;2023-04-26T04:03:21;13.75;;;4.97;;
31760;SDS011;18335;51.486;7.562;2023-04-26T04:05:50;18.20;;;4.13;;
31760;SDS011;18335;51.486;7.562;2023-04-26T04:08:17;15.02;;;4.07;;
31760;SDS011;18335;51.486;7.562;2023-04-26T04:10:43;11.90;;;4.00;;
31760;SDS011;18335;51.486;7.562;2023-04-26T04:13:11;17.20;;;4.40;;
31760;SDS011;18335;51.486;7.562;2023-04-26T04:15:39;16.35;;;4.32;;
31760;SDS011;18335;51.486;7.562;2023-04-26T04:18:07;12.40;;;5.22;;
31760;SDS011;18335;51.486;7.562;2023-04-26T04:20:33;13.85;;;4.20;;
31760;SDS011;18335;51.486;7.562;2023-04-26T04:23:00;13.05;;;4.10;;
31760;SDS011;18335;51.486;7.562;2023-04-26T04:25:28;11.63;;;4.10;;
31760;SDS011;18335;51.486;7.562;2023-04-26T04:27:58;15.20;;;4.63;;
31760;SDS011;18335;51.486;7.562;2023-04-26T04:30:28;12.90;;;4.95;;
31760;SDS011;18335;51.486;7.562;2023-04-26T04:32:55;13.60;;;5.13;;
31760;SDS011;18335;51.486;7.562;2023-04-26T04:35:23;13.45;;;5.25;;
31760;SDS011;18335;51.486;7.562;2023-04-26T04:37:53;13.82;;;4.88;;
31760;SDS011;18335;51.486;7.562;2023-04-26T04:40:23;11.27;;;4.70;;
31760;SDS011;18335;51.486;7.562;2023-04-26T04:42:51;12.88;;;4.85;;
31760;SDS011;18335;51.486;7.562;2023-04-26T04:45:20;14.07;;;5.25;;
31760;SDS011;18335;51.486;7.562;2023-04-26T04:47:50;13.68;;;5.63;;
31760;SDS011;18335;51.486;7.562;2023-04-26T04:50:18;12.13;;;5.22;;
31760;SDS011;18335;51.486;7.562;2023-04-26T04:52:45;18.88;;;6.60;;
31760;SDS011;18335;51.486;7.562;2023-04-26T04:55:13;19.10;;;7.70;;
31760;SDS011;18335;51.486;7.562;2023-04-26T04:57:41;16.48;;;7.57;;
31760;SDS011;18335;51.486;7.562;2023-04-26T05:00:08;18.67;;;6.30;;
31760;SDS011;18335;51.486;7.562;2023-04-26T05:02:43;15.45;;;7.00;;
31760;SDS011;18335;51.486;7.562;2023-04-26T05:05:11;13.75;;;5.90;;
31760;SDS011;18335;51.486;7.562;2023-04-26T05:07:38;14.43;;;6.45;;
31760;SDS011;18335;51.486;7.562;2023-04-26T05:10:05;18.40;;;8.55;;
31760;SDS011;18335;51.486;7.562;2023-04-26T05:12:32;14.60;;;7.35;;
31760;SDS011;18335;51.486;7.562;2023-04-26T05:14:59;16.13;;;6.60;;
31760;SDS011;18335;51.486;7.562;2023-04-26T05:17:26;23.70;;;8.63;;
31760;SDS011;18335;51.486;7.562;2023-04-26T05:19:55;20.50;;;8.70;;
31760;SDS011;18335;51.486;7.562;2023-04-26T05:22:23;18.65;;;7.97;;
31760;SDS011;18335;51.486;7.562;2023-04-26T05:24:52;20.02;;;7.20;;
31760;SDS011;18335;51.486;7.562;2023-04-26T05:27:20;24.45;;;10.00;;
31760;SDS011;18335;51.486;7.562;2023-04-26T05:29:52;26.00;;;9.95;;
31760;SDS011;18335;51.486;7.562;2023-04-26T05:32:26;22.60;;;10.07;;
31760;SDS011;18335;51.486;7.562;2023-04-26T05:35:07;25.65;;;10.73;;
31760;SDS011;18335;51.486;7.562;2023-04-26T05:37:35;27.98;;;11.25;;
31760;SDS011;18335;51.486;7.562;2023-04-26T05:40:05;22.23;;;12.25;;
31760;SDS011;18335;51.486;7.562;2023-04-26T05:42:33;23.65;;;11.13;;
31760;SDS011;18335;51.486;7.562;2023-04-26T05:45:00;24.95;;;11.85;;
31760;SDS011;18335;51.486;7.562;2023-04-26T05:47:26;25.63;;;11.88;;
31760;SDS011;18335;51.486;7.562;2023-04-26T05:49:53;26.27;;;11.55;;
31760;SDS011;18335;51.486;7.562;2023-04-26T05:52:20;24.25;;;11.48;;
31760;SDS011;18335;51.486;7.562;2023-04-26T05:54:49;29.88;;;11.20;;
31760;SDS011;18335;51.486;7.562;2023-04-26T05:57:16;24.75;;;11.32;;
31760;SDS011;18335;51.486;7.562;2023-04-26T05:59:43;25.45;;;12.05;;
31760;SDS011;18335;51.486;7.562;2023-04-26T06:02:10;23.88;;;11.90;;
31760;SDS011;18335;51.486;7.562;2023-04-26T06:04:37;26.60;;;11.45;;
31760;SDS011;18335;51.486;7.562;2023-04-26T06:07:10;27.17;;;10.80;;
31760;SDS011;18335;51.486;7.562;2023-04-26T06:09:37;30.67;;;12.75;;
31760;SDS011;18335;51.486;7.562;2023-04-26T06:12:06;26.88;;;12.15;;
31760;SDS011;18335;51.486;7.562;2023-04-26T06:14:35;26.13;;;11.45;;
31760;SDS011;18335;51.486;7.562;2023-04-26T06:17:06;32.53;;;10.63;;
31760;SDS011;18335;51.486;7.562;2023-04-26T06:19:33;26.00;;;10.93;;
31760;SDS011;18335;51.486;7.562;2023-04-26T06:22:00;30.63;;;10.65;;
31760;SDS011;18335;51.486;7.562;2023-04-26T06:24:27;25.55;;;11.35;;
31760;SDS011;18335;51.486;7.562;2023-04-26T06:26:53;21.83;;;9.50;;
31760;SDS011;18335;51.486;7.562;2023-04-26T06:29:21;27.80;;;10.57;;
31760;SDS011;18335;51.486;7.562;2023-04-26T06:31:48;24.50;;;10.00;;
31760;SDS011;18335;51.486;7.562;2023-04-26T06:34:17;16.98;;;9.52;;
31760;SDS011;18335;51.486;7.562;2023-04-26T06:36:44;19.85;;;9.02;;
31760;SDS011;18335;51.486;7.562;2023-04-26T06:39:11;19.58;;;8.15;;
31760;SDS011;18335;51.486;7.562;2023-04-26T06:41:38;19.70;;;8.80;;
31760;SDS011;18335;51.486;7.562;2023-04-26T06:44:08;20.77;;;8.25;;
31760;SDS011;18335;51.486;7.562;2023-04-26T06:46:41;21.17;;;8.45;;
31760;SDS011;18335;51.486;7.562;2023-04-26T06:49:08;23.40;;;7.85;;
31760;SDS011;18335;51.486;7.562;2023-04-26T06:51:35;18.58;;;6.65;;
31760;SDS011;18335;51.486;7.562;2023-04-26T06:54:02;17.13;;;8.18;;
31760;SDS011;18335;51.486;7.562;2023-04-26T06:56:29;13.07;;;6.32;;
31760;SDS011;18335;51.486;7.562;2023-04-26T06:58:59;21.00;;;7.57;;
31760;SDS011;18335;51.486;7.562;2023-04-26T07:01:28;26.33;;;8.88;;
31760;SDS011;18335;51.486;7.562;2023-04-26T07:03:59;25.25;;;9.68;;
31760;SDS011;18335;51.486;7.562;2023-04-26T07:06:27;26.95;;;10.02;;
31760;SDS011;18335;51.486;7.562;2023-04-26T07:08:56;20.00;;;6.43;;
31760;SDS011;18335;51.486;7.562;2023-04-26T07:11:23;21.33;;;7.80;;
31760;SDS011;18335;51.486;7.562;2023-04-26T07:13:50;16.63;;;6.85;;
31760;SDS011;18335;51.486;7.562;2023-04-26T07:16:17;22.60;;;9.27;;
31760;SDS011;18335;51.486;7.562;2023-04-26T07:18:44;19.10;;;8.68;;
31760;SDS011;18335;51.486;7.562;2023-04-26T07:21:13;21.75;;;7.38;;
31760;SDS011;18335;51.486;7.562;2023-04-26T07:23:40;22.27;;;7.53;;
31760;SDS011;18335;51.486;7.562;2023-04-26T07:26:09;21.85;;;8.23;;
31760;SDS011;18335;51.486;7.562;2023-04-26T07:28:36;13.18;;;4.47;;
31760;SDS011;18335;51.486;7.562;2023-04-26T07:31:03;13.88;;;4.72;;
31760;SDS011;18335;51.486;7.562;2023-04-26T07:33:30;16.35;;;6.22;;
31760;SDS011;18335;51.486;7.562;2023-04-26T07:35:57;14.20;;;4.57;;
31760;SDS011;18335;51.486;7.562;2023-04-26T07:38:27;12.43;;;3.83;;
31760;SDS011;18335;51.486;7.562;2023-04-26T07:40:54;9.63;;;3.00;;
31760;SDS011;18335;51.486;7.562;2023-04-26T07:43:21;14.07;;;3.38;;
31760;SDS011;18335;51.486;7.562;2023-04-26T07:45:48;9.00;;;2.92;;
31760;SDS011;18335;51.486;7.562;2023-04-26T07:48:15;14.25;;;3.53;;
31760;SDS011;18335;51.486;7.562;2023-04-26T07:50:42;13.90;;;3.60;;
31760;SDS011;18335;51.486;7.562;2023-04-26T07:53:09;12.63;;;4.03;;
31760;SDS011;18335;51.486;7.562;2023-04-26T07:55:37;13.77;;;3.83;;
31760;SDS011;18335;51.486;7.562;2023-04-26T07:58:04;12.35;;;2.88;;
31760;SDS011;18335;51.486;7.562;2023-04-26T08:00:31;15.77;;;2.53;;
31760;SDS011;18335;51.486;7.562;2023-04-26T08:03:02;12.98;;;3.63;;
31760;SDS011;18335;51.486;7.562;2023-04-26T08:05:29;9.15;;;3.03;;
31760;SDS011;18335;51.486;7.562;2023-04-26T08:07:56;12.15;;;4.05;;
31760;SDS011;18335;51.486;7.562;2023-04-26T08:10:22;7.38;;;2.42;;
31760;SDS011;18335;51.486;7.562;2023-04-26T08:12:50;13.05;;;3.08;;
31760;SDS011;18335;51.486;7.562;2023-04-26T08:15:18;10.98;;;3.22;;
31760;SDS011;18335;51.486;7.562;2023-04-26T08:17:44;10.45;;;2.95;;
31760;SDS011;18335;51.486;7.562;2023-04-26T08:20:11;14.23;;;3.72;;
31760;SDS011;18335;51.486;7.562;2023-04-26T08:22:38;12.35;;;3.58;;
31760;SDS011;18335;51.486;7.562;2023-04-26T08:25:05;10.93;;;2.80;;
31760;SDS011;18335;51.486;7.562;2023-04-26T08:27:32;11.27;;;3.08;;
31760;SDS011;18335;51.486;7.562;2023-04-26T08:30:01;13.43;;;3.05;;
31760;SDS011;18335;51.486;7.562;2023-04-26T08:32:29;6.82;;;2.58;;
31760;SDS011;18335;51.486;7.562;2023-04-26T08:34:55;9.98;;;3.80;;
31760;SDS011;18335;51.486;7.562;2023-04-26T08:37:22;10.45;;;2.60;;
31760;SDS011;18335;51.486;7.562;2023-04-26T08:39:49;12.85;;;2.92;;
31760;SDS011;18335;51.486;7.562;2023-04-26T08:42:16;10.32;;;2.25;;
31760;SDS011;18335;51.486;7.562;2023-04-26T08:44:43;15.45;;;2.83;;
31760;SDS011;18335;51.486;7.562;2023-04-26T08:47:15;12.00;;;2.33;;
31760;SDS011;18335;51.486;7.562;2023-04-26T08:49:43;7.93;;;2.72;;
31760;SDS011;18335;51.486;7.562;2023-04-26T08:52:14;12.20;;;2.15;;
31760;SDS011;18335;51.486;7.562;2023-04-26T08:54:41;13.05;;;2.38;;
31760;SDS011;18335;51.486;7.562;2023-04-26T08:57:08;8.90;;;2.58;;
31760;SDS011;18335;51.486;7.562;2023-04-26T08:59:35;11.57;;;2.45;;
31760;SDS011;18335;51.486;7.562;2023-04-26T09:02:03;13.13;;;2.20;;
31760;SDS011;18335;51.486;7.562;2023-04-26T09:04:32;10.60;;;1.90;;
31760;SDS011;18335;51.486;7.562;2023-04-26T09:06:59;6.63;;;2.20;;
31760;SDS011;18335;51.486;7.562;2023-04-26T09:09:28;6.72;;;1.80;;
31760;SDS011;18335;51.486;7.562;2023-04-26T09:12:02;8.68;;;1.88;;
31760;SDS011;18335;51.486;7.562;2023-04-26T09:14:29;7.40;;;2.35;;
31760;SDS011;18335;51.486;7.562;2023-04-26T09:16:56;8.32;;;3.00;;
31760;SDS011;18335;51.486;7.562;2023-04-26T09:19:34;7.80;;;1.95;;
31760;SDS011;18335;51.486;7.562;2023-04-26T09:22:02;9.10;;;2.47;;
31760;SDS011;18335;51.486;7.562;2023-04-26T09:24:30;9.05;;;2.47;;
31760;SDS011;18335;51.486;7.562;2023-04-26T09:27:12;11.93;;;2.63;;
31760;SDS011;18335;51.486;7.562;2023-04-26T09:29:40;13.07;;;2.97;;
31760;SDS011;18335;51.486;7.562;2023-04-26T09:32:06;10.35;;;2.08;;
31760;SDS011;18335;51.486;7.562;2023-04-26T09:34:44;10.75;;;2.50;;
31760;SDS011;18335;51.486;7.562;2023-04-26T09:37:11;9.40;;;2.17;;
31760;SDS011;18335;51.486;7.562;2023-04-26T09:39:40;10.65;;;3.22;;
31760;SDS011;18335;51.486;7.562;2023-04-26T09:42:07;10.23;;;3.10;;
31760;SDS011;18335;51.486;7.562;2023-04-26T09:44:35;7.38;;;2.10;;
31760;SDS011;18335;51.486;7.562;2023-04-26T09:47:03;10.73;;;2.72;;
31760;SDS011;18335;51.486;7.562;2023-04-26T09:49:31;14.68;;;2.67;;
31760;SDS011;18335;51.486;7.562;2023-04-26T09:52:09;17.17;;;3.53;;
31760;SDS011;18335;51.486;7.562;2023-04-26T09:54:40;7.35;;;2.60;;
31760;SDS011;18335;51.486;7.562;2023-04-26T09:57:10;6.88;;;2.53;;
31760;SDS011;18335;51.486;7.562;2023-04-26T09:59:38;14.55;;;3.33;;
31760;SDS011;18335;51.486;7.562;2023-04-26T10:02:07;14.30;;;4.18;;
31760;SDS011;18335;51.486;7.562;2023-04-26T10:04:38;10.23;;;3.22;;
31760;SDS011;18335;51.486;7.562;2023-04-26T10:07:05;9.40;;;2.72;;
31760;SDS011;18335;51.486;7.562;2023-04-26T10:09:33;5.63;;;2.40;;
31760;SDS011;18335;51.486;7.562;2023-04-26T10:12:01;7.82;;;2.60;;
31760;SDS011;18335;51.486;7.562;2023-04-26T10:14:27;5.88;;;2.22;;
31760;SDS011;18335;51.486;7.562;2023-04-26T10:16:55;13.80;;;3.20;;
31760;SDS011;18335;51.486;7.562;2023-04-26T10:19:24;9.40;;;3.42;;
31760;SDS011;18335;51.486;7.562;2023-04-26T10:21:50;10.70;;;3.08;;
31760;SDS011;18335;51.486;7.562;2023-04-26T10:24:21;10.77;;;2.80;;
31760;SDS011;18335;51.486;7.562;2023-04-26T10:26:50;13.15;;;3.97;;
31760;SDS011;18335;51.486;7.562;2023-04-26T10:29:21;8.68;;;2.70;;
31760;SDS011;18335;51.486;7.562;2023-04-26T10:32:05;13.27;;;3.40;;
31760;SDS011;18335;51.486;7.562;2023-04-26T10:34:33;6.05;;;2.60;;
31760;SDS011;18335;51.486;7.562;2023-04-26T10:37:11;7.35;;;3.28;;
31760;SDS011;18335;51.486;7.562;2023-04-26T10:39:39;7.63;;;2.75;;
31760;SDS011;18335;51.486;7.562;2023-04-26T10:42:17;9.43;;;2.83;;
31760;SDS011;18335;51.486;7.562;2023-04-26T10:44:47;12.20;;;3.13;;
31760;SDS011;18335;51.486;7.562;2023-04-26T10:47:28;11.32;;;2.85;;
31760;SDS011;18335;51.486;7.562;2023-04-26T10:50:03;11.05;;;3.05;;
31760;SDS011;18335;51.486;7.562;2023-04-26T10:52:32;8.07;;;2.72;;
31760;SDS011;18335;51.486;7.562;2023-04-26T10:54:59;9.95;;;2.63;;
31760;SDS011;18335;51.486;7.562;2023-04-26T10:57:47;10.18;;;2.95;;
31760;SDS011;18335;51.486;7.562;2023-04-26T11:00:24;8.07;;;3.13;;
31760;SDS011;18335;51.486;7.562;2023-04-26T11:02:57;12.52;;;3.00;;
31760;SDS011;18335;51.486;7.562;2023-04-26T11:08:20;11.88;;;2.75;;
31760;SDS011;18335;51.486;7.562;2023-04-26T11:10:51;11.10;;;3.40;;
31760;SDS011;18335;51.486;7.562;2023-04-26T11:13:24;12.10;;;3.08;;
31760;SDS011;18335;51.486;7.562;2023-04-26T11:15:51;15.60;;;3.95;;
31760;SDS011;18335;51.486;7.562;2023-04-26T11:18:19;10.35;;;2.90;;
31760;SDS011;18335;51.486;7.562;2023-04-26T11:20:46;9.68;;;3.80;;
31760;SDS011;18335;51.486;7.562;2023-04-26T11:23:13;11.98;;;3.85;;
31760;SDS011;18335;51.486;7.562;2023-04-26T11:25:41;13.52;;;3.13;;
31760;SDS011;18335;51.486;7.562;2023-04-26T11:28:07;11.93;;;3.70;;
31760;SDS011;18335;51.486;7.562;2023-04-26T11:30:35;9.57;;;3.25;;
31760;SDS011;18335;51.486;7.562;2023-04-26T11:33:02;7.38;;;2.38;;
31760;SDS011;18335;51.486;7.562;2023-04-26T11:35:31;9.35;;;2.83;;
31760;SDS011;18335;51.486;7.562;2023-04-26T11:37:59;7.50;;;2.85;;
31760;SDS011;18335;51.486;7.562;2023-04-26T11:40:29;12.77;;;3.25;;
31760;SDS011;18335;51.486;7.562;2023-04-26T11:43:00;6.38;;;3.00;;
31760;SDS011;18335;51.486;7.562;2023-04-26T11:45:27;13.50;;;3.30;;
31760;SDS011;18335;51.486;7.562;2023-04-26T11:47:58;12.23;;;3.38;;
31760;SDS011;18335;51.486;7.562;2023-04-26T11:50:26;10.32;;;3.92;;
31760;SDS011;18335;51.486;7.562;2023-04-26T11:52:54;10.57;;;3.35;;
31760;SDS011;18335;51.486;7.562;2023-04-26T11:55:22;10.20;;;3.53;;
31760;SDS011;18335;51.486;7.562;2023-04-26T11:57:51;11.15;;;4.22;;
31760;SDS011;18335;51.486;7.562;2023-04-26T12:00:18;12.40;;;3.55;;
31760;SDS011;18335;51.486;7.562;2023-04-26T12:02:46;9.55;;;3.53;;
31760;SDS011;18335;51.486;7.562;2023-04-26T12:05:21;10.50;;;3.58;;
31760;SDS011;18335;51.486;7.562;2023-04-26T12:07:48;11.50;;;4.00;;
31760;SDS011;18335;51.486;7.562;2023-04-26T12:10:16;12.63;;;4.20;;
31760;SDS011;18335;51.486;7.562;2023-04-26T12:12:46;15.85;;;4.70;;
31760;SDS011;18335;51.486;7.562;2023-04-26T12:15:14;8.07;;;3.60;;
31760;SDS011;18335;51.486;7.562;2023-04-26T12:17:50;15.52;;;4.32;;
31760;SDS011;18335;51.486;7.562;2023-04-26T12:20:17;12.43;;;3.75;;
31760;SDS011;18335;51.486;7.562;2023-04-26T12:22:56;11.85;;;4.10;;
31760;SDS011;18335;51.486;7.562;2023-04-26T12:25:24;12.18;;;4.28;;
31760;SDS011;18335;51.486;7.562;2023-04-26T12:27:51;14.07;;;4.72;;
31760;SDS011;18335;51.486;7.562;2023-04-26T12:30:18;17.98;;;5.47;;
31760;SDS011;18335;51.486;7.562;2023-04-26T12:33:00;9.23;;;4.07;;
31760;SDS011;18335;51.486;7.562;2023-04-26T12:35:27;12.55;;;4.75;;
31760;SDS011;18335;51.486;7.562;2023-04-26T12:37:53;10.60;;;3.95;;
31760;SDS011;18335;51.486;7.562;2023-04-26T12:40:22;12.77;;;4.13;;
31760;SDS011;18335;51.486;7.562;2023-04-26T12:42:49;14.10;;;4.25;;
31760;SDS011;18335;51.486;7.562;2023-04-26T12:45:16;14.95;;;4.13;;
31760;SDS011;18335;51.486;7.562;2023-04-26T12:47:44;12.48;;;4.45;;
31760;SDS011;18335;51.486;7.562;2023-04-26T12:50:12;15.95;;;4.50;;
31760;SDS011;18335;51.486;7.562;2023-04-26T12:52:39;11.82;;;4.13;;
31760;SDS011;18335;51.486;7.562;2023-04-26T12:55:08;14.82;;;4.32;;
31760;SDS011;18335;51.486;7.562;2023-04-26T12:57:37;11.68;;;4.60;;
31760;SDS011;18335;51.486;7.562;2023-04-26T13:00:05;13.02;;;4.70;;
31760;SDS011;18335;51.486;7.562;2023-04-26T13:02:34;12.93;;;4.43;;
31760;SDS011;18335;51.486;7.562;2023-04-26T13:05:01;15.73;;;4.28;;
31760;SDS011;18335;51.486;7.562;2023-04-26T13:07:30;9.75;;;4.05;;
31760;SDS011;18335;51.486;7.562;2023-04-26T13:09:57;10.90;;;3.80;;
31760;SDS011;18335;51.486;7.562;2023-04-26T13:12:24;9.23;;;3.85;;
31760;SDS011;18335;51.486;7.562;2023-04-26T13:14:53;9.80;;;3.97;;
31760;SDS011;18335;51.486;7.562;2023-04-26T13:17:21;9.15;;;3.33;;
31760;SDS011;18335;51.486;7.562;2023-04-26T13:19:49;13.70;;;3.75;;
31760;SDS011;18335;51.486;7.562;2023-04-26T13:22:17;11.82;;;3.92;;
31760;SDS011;18335;51.486;7.562;2023-04-26T13:24:44;9.38;;;3.80;;
31760;SDS011;18335;51.486;7.562;2023-04-26T13:27:11;10.73;;;2.90;;
31760;SDS011;18335;51.486;7.562;2023-04-26T13:29:39;8.57;;;3.40;;
31760;SDS011;18335;51.486;7.562;2023-04-26T13:32:07;10.45;;;3.45;;
31760;SDS011;18335;51.486;7.562;2023-04-26T13:34:34;12.52;;;2.67;;
31760;SDS011;18335;51.486;7.562;2023-04-26T13:37:01;6.93;;;2.30;;
31760;SDS011;18335;51.486;7.562;2023-04-26T13:39:28;8.47;;;2.57;;
31760;SDS011;18335;51.486;7.562;2023-04-26T13:41:55;4.82;;;2.45;;
31760;SDS011;18335;51.486;7.562;2023-04-26T13:44:24;9.93;;;2.92;;
31760;SDS011;18335;51.486;7.562;2023-04-26T13:46:53;8.52;;;2.50;;
31760;SDS011;18335;51.486;7.562;2023-04-26T13:49:22;9.23;;;3.00;;
31760;SDS011;18335;51.486;7.562;2023-04-26T13:51:50;10.50;;;4.85;;
31760;SDS011;18335;51.486;7.562;2023-04-26T13:54:17;9.88;;;2.85;;
31760;SDS011;18335;51.486;7.562;2023-04-26T13:56:46;6.50;;;2.28;;
31760;SDS011;18335;51.486;7.562;2023-04-26T13:59:13;8.95;;;2.70;;
31760;SDS011;18335;51.486;7.562;2023-04-26T14:01:39;5.80;;;2.33;;
31760;SDS011;18335;51.486;7.562;2023-04-26T14:04:06;8.30;;;2.80;;
31760;SDS011;18335;51.486;7.562;2023-04-26T14:06:34;9.68;;;3.10;;
31760;SDS011;18335;51.486;7.562;2023-04-26T14:09:01;8.85;;;2.55;;
31760;SDS011;18335;51.486;7.562;2023-04-26T14:11:29;7.47;;;3.28;;
31760;SDS011;18335;51.486;7.562;2023-04-26T14:13:57;9.00;;;2.55;;
31760;SDS011;18335;51.486;7.562;2023-04-26T14:16:24;10.68;;;3.13;;
31760;SDS011;18335;51.486;7.562;2023-04-26T14:18:51;10.93;;;3.47;;
31760;SDS011;18335;51.486;7.562;2023-04-26T14:21:18;5.75;;;2.58;;
31760;SDS011;18335;51.486;7.562;2023-04-26T14:23:46;9.98;;;4.32;;
31760;SDS011;18335;51.486;7.562;2023-04-26T14:26:13;10.43;;;3.70;;
31760;SDS011;18335;51.486;7.562;2023-04-26T14:28:39;8.88;;;3.17;;
31760;SDS011;18335;51.486;7.562;2023-04-26T14:31:06;10.20;;;3.47;;
31760;SDS011;18335;51.486;7.562;2023-04-26T14:33:33;8.55;;;3.03;;
31760;SDS011;18335;51.486;7.562;2023-04-26T14:36:00;10.88;;;3.33;;
31760;SDS011;18335;51.486;7.562;2023-04-26T14:38:26;11.50;;;3.08;;
31760;SDS011;18335;51.486;7.562;2023-04-26T14:40:54;9.77;;;3.78;;
31760;SDS011;18335;51.486;7.562;2023-04-26T14:43:21;7.85;;;2.67;;
31760;SDS011;18335;51.486;7.562;2023-04-26T14:45:48;8.52;;;2.92;;
31760;SDS011;18335;51.486;7.562;2023-04-26T14:48:15;11.38;;;2.55;;